Seattle, Washington
Traffic Map
Current Weather Conditions
Seattle, Washington
Overcast Light Rain
Overcast
46°
Feels Like: 46°
Wind Chill: 46° Ceiling: 6000
Heat Index: 46° Visibility: 10mi
Dew Point: 44° Wind: 0mph
Humidity: 93% Direction: ° ()
Pressure: 29.57in Gusts: 0mph
Raw Report DataKBFI 220353Z 00000KT 10SM -RA SCT037 OVC060 08/07 A2957 RMK AO2 SLP013 P0001 T00780067
Traffic Incident Summary
Active as of:
Severity:
Category:
InformationThere was an issue retrieving the traffic information for this location. Please try a different location or try again shortly.
Advertisements
Track Severe Weather on mobile